Lesknedalar — FHKS — position and weather

sailwx.info

Track history (hours):
 
Tides and Currents Weather Stations Pressure Air Temp Water Temp Dewpoint Dewpoint Depression Visibility Wind Speed Wind Dir Waves Ship Positions

Lesknedalar

Last reported at 2017-Dec-08 15:57 UTC. Time now 2017-Dec-12 21:40 UTC.
Position N 47°49' W 004°23'.

Length 16 m.

Type: Fishing. MMSI: 228160000.

Date/timePositionNaut miles runAvg speedWind from/ knotsBaromVisibWave heightAir tempDewpointWater temp
2017-Dec-08 15:57N 47°49' W 004°23'0 0.0
2017-Dec-08 15:30N 47°49' W 004°23'0 0.0
2017-Dec-08 15:00N 47°49' W 004°23'0 0.0
2017-Dec-08 14:30N 47°49' W 004°23'0 0.0
2017-Dec-08 13:58N 47°49' W 004°23'0 0.0
2017-Dec-08 13:30N 47°49' W 004°23'0 0.0
2017-Dec-08 13:00N 47°49' W 004°23'0 0.0
2017-Dec-08 12:31N 47°49' W 004°23'0 0.0
2017-Dec-08 11:56N 47°49' W 004°23'0 0.0
2017-Dec-08 11:30N 47°49' W 004°23'0 0.0
2017-Dec-08 10:58N 47°49' W 004°23'0 0.0
2017-Dec-08 10:30N 47°49' W 004°23'0 0.0
2017-Dec-08 09:59N 47°49' W 004°23'0 0.0
2017-Dec-08 09:30N 47°49' W 004°23'0 0.0
2017-Dec-07 16:11N 47°49' W 004°23'0 0.0
2017-Dec-07 16:00N 47°49' W 004°23'0 0.0
2017-Dec-07 15:30N 47°49' W 004°23'0 0.0
2017-Dec-07 15:01N 47°49' W 004°23'0 0.0
2017-Dec-07 10:40N 47°49' W 004°23'0 0.0
2017-Dec-07 10:29N 47°49' W 004°23'  
2017-Dec-04 09:52N 47°49' W 004°23'  
2017-Dec-01 11:17N 47°49' W 004°23'0 0.0
2017-Dec-01 11:00N 47°49' W 004°23'0 0.0
2017-Dec-01 10:27N 47°49' W 004°23'0 0.0
2017-Dec-01 10:00N 47°49' W 004°23'0 0.0
2017-Dec-01 09:31N 47°49' W 004°23'0 0.0
2017-Dec-01 08:59N 47°49' W 004°23'0 0.0
2017-Dec-01 08:30N 47°49' W 004°23'0 0.0
2017-Nov-30 16:55N 47°49' W 004°23'0 0.0
2017-Nov-29 22:56N 47°49' W 004°23'0 0.2
2017-Nov-29 22:25N 47°49' W 004°23'2 5.3
2017-Nov-29 22:01N 47°51' W 004°22'4 8.4
2017-Nov-29 21:29N 47°55' W 004°26'4 9.1
2017-Nov-29 21:00N 47°58' W 004°31'4 8.9
2017-Nov-29 20:30N 47°59' W 004°37'4 8.3
2017-Nov-29 20:00N 48°01' W 004°43'3 6.0
2017-Nov-29 19:30N 48°03' W 004°46'4 7.1
2017-Nov-29 19:00N 48°05' W 004°41'5 9.0
2017-Nov-29 18:30N 48°06' W 004°35'5 9.3
2017-Nov-29 18:00N 48°08' W 004°28'4 8.3
2017-Nov-29 17:31N 48°10' W 004°23'1 1.6
2017-Nov-29 17:01N 48°10' W 004°22'0 0.4
2017-Nov-29 16:31N 48°10' W 004°22'0 0.8
2017-Nov-29 16:00N 48°10' W 004°21'0 0.2
2017-Nov-29 15:30N 48°10' W 004°21'4 7.8
2017-Nov-29 15:00N 48°06' W 004°19'0 0.0
2017-Nov-28 20:05N 48°06' W 004°19'0 0.1
2017-Nov-28 20:00N 48°06' W 004°19'0 0.3
2017-Nov-28 19:30N 48°06' W 004°19'0 0.0
2017-Nov-28 19:00N 48°06' W 004°19'2 5.0
2017-Nov-28 18:31N 48°08' W 004°20'4 7.4
2017-Nov-28 18:00N 48°11' W 004°24'1 1.2
2017-Nov-28 17:31N 48°12' W 004°24'0 0.4
2017-Nov-28 17:01N 48°12' W 004°24'0 0.7
2017-Nov-28 16:31N 48°12' W 004°24'0 0.2
2017-Nov-28 16:01N 48°12' W 004°24'  
Track history (hours):
 
Tides and Currents Weather Stations Pressure Air Temp Water Temp Dewpoint Dewpoint Depression Visibility Wind Speed Wind Dir Waves Ship Positions

Lesknedalar

Last reported at 2017-Dec-08 15:57 UTC. Time now 2017-Dec-12 21:40 UTC.
Position N 47°49' W 004°23'.

Length 16 m.

Type: Fishing. MMSI: 228160000.

Date/timePositionNaut miles runAvg speedWind from/ knotsBaromVisibWave heightAir tempDewpointWater temp
2017-Dec-08 15:57N 47°49' W 004°23'0 0.0
2017-Dec-08 15:30N 47°49' W 004°23'0 0.0
2017-Dec-08 15:00N 47°49' W 004°23'0 0.0
2017-Dec-08 14:30N 47°49' W 004°23'0 0.0
2017-Dec-08 13:58N 47°49' W 004°23'0 0.0
2017-Dec-08 13:30N 47°49' W 004°23'0 0.0
2017-Dec-08 13:00N 47°49' W 004°23'0 0.0
2017-Dec-08 12:31N 47°49' W 004°23'0 0.0
2017-Dec-08 11:56N 47°49' W 004°23'0 0.0
2017-Dec-08 11:30N 47°49' W 004°23'0 0.0
2017-Dec-08 10:58N 47°49' W 004°23'0 0.0
2017-Dec-08 10:30N 47°49' W 004°23'0 0.0
2017-Dec-08 09:59N 47°49' W 004°23'0 0.0
2017-Dec-08 09:30N 47°49' W 004°23'0 0.0
2017-Dec-07 16:11N 47°49' W 004°23'0 0.0
2017-Dec-07 16:00N 47°49' W 004°23'0 0.0
2017-Dec-07 15:30N 47°49' W 004°23'0 0.0
2017-Dec-07 15:01N 47°49' W 004°23'0 0.0
2017-Dec-07 10:40N 47°49' W 004°23'0 0.0
2017-Dec-07 10:29N 47°49' W 004°23'  
2017-Dec-04 09:52N 47°49' W 004°23'  
2017-Dec-01 11:17N 47°49' W 004°23'0 0.0
2017-Dec-01 11:00N 47°49' W 004°23'0 0.0
2017-Dec-01 10:27N 47°49' W 004°23'0 0.0
2017-Dec-01 10:00N 47°49' W 004°23'0 0.0
2017-Dec-01 09:31N 47°49' W 004°23'0 0.0
2017-Dec-01 08:59N 47°49' W 004°23'0 0.0
2017-Dec-01 08:30N 47°49' W 004°23'0 0.0
2017-Nov-30 16:55N 47°49' W 004°23'0 0.0
2017-Nov-29 22:56N 47°49' W 004°23'0 0.2
2017-Nov-29 22:25N 47°49' W 004°23'2 5.3
2017-Nov-29 22:01N 47°51' W 004°22'4 8.4
2017-Nov-29 21:29N 47°55' W 004°26'4 9.1
2017-Nov-29 21:00N 47°58' W 004°31'4 8.9
2017-Nov-29 20:30N 47°59' W 004°37'4 8.3
2017-Nov-29 20:00N 48°01' W 004°43'3 6.0
2017-Nov-29 19:30N 48°03' W 004°46'4 7.1
2017-Nov-29 19:00N 48°05' W 004°41'5 9.0
2017-Nov-29 18:30N 48°06' W 004°35'5 9.3
2017-Nov-29 18:00N 48°08' W 004°28'4 8.3
2017-Nov-29 17:31N 48°10' W 004°23'1 1.6
2017-Nov-29 17:01N 48°10' W 004°22'0 0.4
2017-Nov-29 16:31N 48°10' W 004°22'0 0.8
2017-Nov-29 16:00N 48°10' W 004°21'0 0.2
2017-Nov-29 15:30N 48°10' W 004°21'4 7.8
2017-Nov-29 15:00N 48°06' W 004°19'0 0.0
2017-Nov-28 20:05N 48°06' W 004°19'0 0.1
2017-Nov-28 20:00N 48°06' W 004°19'0 0.3
2017-Nov-28 19:30N 48°06' W 004°19'0 0.0
2017-Nov-28 19:00N 48°06' W 004°19'2 5.0
2017-Nov-28 18:31N 48°08' W 004°20'4 7.4
2017-Nov-28 18:00N 48°11' W 004°24'1 1.2
2017-Nov-28 17:31N 48°12' W 004°24'0 0.4
2017-Nov-28 17:01N 48°12' W 004°24'0 0.7
2017-Nov-28 16:31N 48°12' W 004°24'0 0.2
2017-Nov-28 16:01N 48°12' W 004°24'  

Dump ship's entire track history